Flight Track Log - Related Links

Times and Time Zones

All times are in EDT time to prevent confusion due to time zone crossing. See the DAL1123 flight status page for this flight to view local times or setup timezone preferences in your user account.

Time Position Orientation Groundspeed Altitude Reporting Facility
EDT Latitude Longitude Course Direction KTS MPH feet Rate Location/Type
Sat 02:45:14 PM 33.6500 -84.3833 251° West 180 207 2,500  Level Atlanta TRACON
Sat 02:46:14 PM 33.6667 -84.3167 73° East 238 274 4,000 2,150 Climbing Atlanta TRACON
Sat 02:47:14 PM 33.7333 -84.2833 23° Northeast 281 323 6,800 2,338 Climbing Atlanta TRACON
Sat 02:48:00 PM 33.7252 -84.8874 252° West  Level FlightAware Approximate
Sat 02:49:00 PM 33.6857 -85.0297 252° West  Level FlightAware Approximate
Sat 02:49:29 PM 33.8103 -84.4339 302° West 261 300 11,600  Level Atlanta Center
Sat 02:50:00 PM 33.6459 -85.1718 251° West  Level FlightAware Approximate
Sat 02:50:29 PM 33.8078 -84.5614 269° West 339 390 13,300  Level Atlanta Center
Sat 02:51:29 PM 33.7883 -84.6836 259° West 370 426 15,300 1,900 Climbing Atlanta Center
Sat 02:52:29 PM 33.7542 -84.8083 252° West 384 442 17,100 1,500 Climbing Atlanta Center
Sat 02:53:29 PM 33.7264 -84.9306 255° West 409 471 18,300 1,450 Climbing Atlanta Center
Sat 02:54:29 PM 33.6897 -85.0675 252° West 421 484 20,000 1,650 Climbing Atlanta Center
Sat 02:55:29 PM 33.6594 -85.2019 255° West 421 484 21,600 1,450 Climbing Atlanta Center
Sat 02:56:29 PM 33.6517 -85.3464 266° West 430 495 22,900 1,350 Climbing Atlanta Center
Sat 02:57:29 PM 33.6542 -85.4964 271° West 446 513 24,300 1,300 Climbing Atlanta Center
Sat 02:58:29 PM 33.6583 -85.6611 272° West 452 520 25,500 1,250 Climbing Atlanta Center
Sat 02:59:29 PM 33.6583 -85.8133 270° West 462 532 26,800 1,200 Climbing Atlanta Center
Sat 03:00:29 PM 33.6603 -85.9681 271° West 462 532 27,900 1,100 Climbing Atlanta Center
Sat 03:01:29 PM 33.6617 -86.1253 271° West 462 532 29,000 1,350 Climbing Atlanta Center
Sat 03:02:29 PM 33.6633 -86.2825 271° West 468 539 30,600 1,500 Climbing Atlanta Center
Sat 03:03:29 PM 33.6644 -86.4372 271° West 468 539 32,000 700 Climbing Atlanta Center
Sat 03:04:29 PM 33.6656 -86.5922 271° West 468 539 32,000  Level Atlanta Center
Sat 03:05:29 PM 33.6683 -86.7494 271° West 468 539 32,000  Level Atlanta Center
Sat 03:06:29 PM 33.6733 -86.9044 272° West 468 539 32,000  Level Atlanta Center
Sat 03:08:37 PM 33.7342 -87.2150 283° West 490 564 32,000  Level Memphis Center
Sat 03:09:37 PM 33.7672 -87.3661 285° West 480 552 32,000  Level Memphis Center
Sat 03:10:37 PM 33.8044 -87.5297 285° West 471 542 32,000  Level Memphis Center
Sat 03:11:37 PM 33.8328 -87.6789 283° West 463 533 32,000  Level Memphis Center
Sat 03:12:37 PM 33.8672 -87.8256 286° West 463 533 32,000  Level Memphis Center
Sat 03:13:37 PM 33.8953 -87.9772 283° West 468 539 32,000  Level Memphis Center
Sat 03:14:37 PM 33.9250 -88.1242 284° West 468 539 32,000  Level Memphis Center
Sat 03:15:37 PM 33.9525 -88.2611 284° West 468 539 32,000  Level Memphis Center
Sat 03:16:37 PM 33.9819 -88.4108 283° West 468 539 32,000  Level Memphis Center
Sat 03:17:37 PM 34.0114 -88.5581 284° West 462 532 32,000  Level Memphis Center
Sat 03:18:37 PM 34.0428 -88.7053 284° West 457 526 32,000  Level Memphis Center
Sat 03:19:37 PM 34.0694 -88.8450 283° West 450 518 32,000  Level Memphis Center
Sat 03:20:37 PM 34.0983 -88.9950 283° West 450 518 32,000  Level Memphis Center
Sat 03:21:37 PM 34.1269 -89.1428 283° West 451 519 32,000  Level Memphis Center
Sat 03:22:37 PM 34.1533 -89.2903 282° West 446 513 32,000  Level Memphis Center
Sat 03:23:37 PM 34.1839 -89.4533 283° West 457 526 32,000  Level Memphis Center
Sat 03:24:37 PM 34.2142 -89.6011 284° West 452 520 32,000  Level Memphis Center
Sat 03:25:37 PM 34.2422 -89.7492 283° West 452 520 32,000  Level Memphis Center
Sat 03:26:37 PM 34.2700 -89.8997 283° West 452 520 32,000  Level Memphis Center
Sat 03:27:37 PM 34.2997 -90.0506 283° West 457 526 32,000  Level Memphis Center
Sat 03:28:37 PM 34.3269 -90.1986 283° West 457 526 32,000  Level Memphis Center
Sat 03:29:37 PM 34.3542 -90.3469 283° West 457 526 32,000  Level Memphis Center
Sat 03:30:37 PM 34.3792 -90.4806 283° West 452 520 32,000  Level Memphis Center
Sat 03:31:37 PM 34.4042 -90.6289 282° West 452 520 32,000  Level Memphis Center
Sat 03:32:37 PM 34.4328 -90.7778 283° West 452 520 32,000  Level Memphis Center
Sat 03:33:37 PM 34.4594 -90.9264 282° West 452 520 32,000  Level Memphis Center
Sat 03:34:37 PM 34.4858 -91.0753 282° West 452 520 32,000  Level Memphis Center
Sat 03:35:37 PM 34.5161 -91.2394 283° West 452 520 32,000  Level Memphis Center
Sat 03:36:37 PM 34.5419 -91.3883 282° West 452 520 32,000  Level Memphis Center
Sat 03:37:37 PM 34.5678 -91.5375 282° West 452 520 32,000  Level Memphis Center
Sat 03:38:37 PM 34.5956 -91.6892 283° West 452 520 32,000  Level Memphis Center
Sat 03:39:37 PM 34.6297 -91.8136 288° West 445 512 32,000  Level Memphis Center
Sat 03:40:37 PM 34.7031 -91.9436 304° West 445 512 32,000  Level Memphis Center
Sat 03:41:37 PM 34.7808 -92.0739 306° West 462 532 32,000  Level Memphis Center
Sat 03:42:37 PM 34.8581 -92.2047 306° West 474 545 32,000  Level Memphis Center
Sat 03:43:37 PM 34.9333 -92.3328 306° West 474 545 32,000  Level Memphis Center
Sat 03:44:37 PM 35.0064 -92.4639 304° West 474 545 32,000  Level Memphis Center
Sat 03:45:37 PM 35.0814 -92.5925 305° West 474 545 32,000  Level Memphis Center
Sat 03:46:37 PM 35.1642 -92.7397 305° West 474 545 32,000  Level Memphis Center
Sat 03:47:37 PM 35.2386 -92.8714 305° West 474 545 32,000 50 Level Memphis Center
Sat 03:48:37 PM 35.3092 -92.9931 305° West 467 537 32,100 550 Climbing Memphis Center
Sat 03:49:37 PM 35.3675 -93.0967 305° West 467 537 33,100 1,450 Climbing Memphis Center
Sat 03:50:37 PM 35.4517 -93.2497 304° West 460 529 35,000 1,550 Climbing Memphis Center
Sat 03:51:37 PM 35.5217 -93.3722 305° West 453 521 36,200 1,050 Climbing Memphis Center
Sat 03:52:37 PM 35.5875 -93.4894 305° West 437 503 37,100 900 Climbing Memphis Center
Sat 03:53:37 PM 35.6556 -93.6094 305° West 432 497 38,000 450 Climbing Memphis Center
Sat 03:54:37 PM 35.7231 -93.7325 304° West 432 497 38,000  Level Memphis Center
Sat 03:55:37 PM 35.7886 -93.8503 304° West 432 497 38,000  Level Memphis Center
Sat 03:56:37 PM 35.8581 -93.9736 305° West 432 497 38,000  Level Memphis Center
Sat 03:57:37 PM 35.9192 -94.0967 302° West 427 491 38,000  Level Memphis Center
Sat 03:59:21 PM 36.0311 -94.2886 306° West 435 501 38,000  Level Kansas City Center
Sat 04:00:21 PM 36.0983 -94.4114 304° West 432 497 38,000  Level Kansas City Center
Sat 04:01:25 PM 36.1786 -94.5597 304° West 433 498 38,000  Level Kansas City Center
Sat 04:02:25 PM 36.2461 -94.6836 304° West 435 501 38,000  Level Kansas City Center
Sat 04:03:26 PM 36.3128 -94.8092 303° West 437 503 38,000  Level Kansas City Center
Sat 04:04:27 PM 36.3797 -94.9339 304° West 437 503 38,000  Level Kansas City Center
Sat 04:05:29 PM 36.4461 -95.0575 304° West 435 501 38,000  Level Kansas City Center
Sat 04:06:30 PM 36.5158 -95.1861 304° West 431 496 38,000  Level Kansas City Center
Sat 04:07:30 PM 36.5836 -95.3119 304° West 436 502 38,000  Level Kansas City Center
Sat 04:08:32 PM 36.6586 -95.4536 303° West 439 505 38,000  Level Kansas City Center
Sat 04:09:33 PM 36.7239 -95.5789 303° West 437 503 38,000  Level Kansas City Center
Sat 04:10:37 PM 36.7892 -95.7047 303° West 435 501 38,000  Level Kansas City Center
Sat 04:11:37 PM 36.8561 -95.8311 304° West 437 503 38,000  Level Kansas City Center
Sat 04:12:38 PM 36.9214 -95.9592 303° West 438 504 38,000  Level Kansas City Center
Sat 04:13:38 PM 36.9869 -96.0853 303° West 435 501 38,000  Level Kansas City Center
Sat 04:14:42 PM 37.0517 -96.2108 303° West 432 497 38,000  Level Kansas City Center
Sat 04:15:43 PM 37.1172 -96.3367 303° West 431 496 38,000  Level Kansas City Center
Sat 04:16:43 PM 37.1928 -96.4856 303° West 433 498 38,000  Level Kansas City Center
Sat 04:17:46 PM 37.2575 -96.6128 303° West 433 498 38,000  Level Kansas City Center
Sat 04:18:47 PM 37.3242 -96.7422 303° West 432 497 38,000  Level Kansas City Center
Sat 04:19:48 PM 37.3875 -96.8681 302° West 434 499 38,000  Level Kansas City Center
Sat 04:20:49 PM 37.4503 -96.9964 302° West 434 499 38,000  Level Kansas City Center
Sat 04:21:50 PM 37.5147 -97.1231 303° West 433 498 38,000  Level Kansas City Center
Sat 04:22:50 PM 37.5783 -97.2511 302° West 432 497 38,000  Level Kansas City Center
Sat 04:23:54 PM 37.6428 -97.3786 303° West 432 497 38,000  Level Kansas City Center
Sat 04:24:54 PM 37.7147 -97.5214 303° West 426 490 38,000  Level Kansas City Center
Sat 04:25:56 PM 37.7744 -97.6517 300° West 426 490 38,000  Level Kansas City Center
Sat 04:26:56 PM 37.8283 -97.7822 298° West 423 487 38,000  Level Kansas City Center
Sat 04:27:58 PM 37.8836 -97.9136 298° West 422 486 38,000  Level Kansas City Center
Sat 04:28:59 PM 37.9386 -98.0444 298° West 421 484 38,000  Level Kansas City Center
Sat 04:30:01 PM 38.0025 -98.1992 298° West 427 491 38,000  Level Kansas City Center
Sat 04:31:02 PM 38.0583 -98.3306 298° West 423 487 38,000  Level Kansas City Center
Sat 04:32:03 PM 38.1167 -98.4633 299° West 428 493 38,000  Level Kansas City Center
Sat 04:33:06 PM 38.1714 -98.5972 298° West 427 491 38,000  Level Kansas City Center
Sat 04:34:06 PM 38.2261 -98.7311 298° West 427 491 38,000  Level Kansas City Center
Sat 04:35:10 PM 38.2806 -98.8639 298° West 424 488 38,000  Level Kansas City Center
Sat 04:36:10 PM 38.3347 -98.9964 298° West 423 487 38,000  Level Kansas City Center
Sat 04:37:11 PM 38.3889 -99.1300 297° West 424 488 38,000  Level Kansas City Center
Sat 04:38:12 PM 38.4433 -99.2617 298° West 422 486 38,000  Level Kansas City Center
Sat 04:39:15 PM 38.5067 -99.4217 297° West 422 486 38,000  Level Kansas City Center
Sat 04:40:16 PM 38.5539 -99.5394 297° West 419 482 38,000  Level Kansas City Center
Sat 04:41:16 PM 38.6128 -99.6881 297° West 420 483 38,000  Level Kansas City Center
Sat 04:42:18 PM 38.6650 -99.8167 298° West 423 487 38,000  Level Kansas City Center
Sat 04:43:18 PM 38.7236 -99.9675 297° West 424 488 38,000  Level Kansas City Center
Sat 04:44:19 PM 38.7758 -100.0964 297° West 426 490 38,000 -192 Level Kansas City Center
Sat 04:45:23 PM 38.8342 -100.2472 296° West 426 490 37,600 -678 Descending Kansas City Center
Sat 04:46:14 PM 38.8756 -100.3533 297° West 424 488 36,700 -1,232 Descending Denver Center
Sat 04:47:15 PM 38.9344 -100.5019 297° West 421 484 35,300 -1,268 Descending Denver Center
Sat 04:48:17 PM 38.9844 -100.6294 297° West 420 483 34,100 -1,024 Descending Denver Center
Sat 04:49:18 PM 39.0367 -100.7664 296° West 425 489 33,200 -927 Descending Denver Center
Sat 04:50:20 PM 39.0944 -100.9164 296° West 421 484 32,200 -1,024 Descending Denver Center
Sat 04:51:21 PM 39.1431 -101.0458 296° West 420 483 31,100 -1,171 Descending Denver Center
Sat 04:52:23 PM 39.1881 -101.1786 294° West 425 489 29,800 -1,317 Descending Denver Center
Sat 04:53:24 PM 39.2106 -101.3497 280° West 432 497 28,400 -885 Descending Denver Center
Sat 04:54:25 PM 39.2372 -101.4939 283° West 432 497 28,000 -195 Descending Denver Center
Sat 04:55:27 PM 39.2639 -101.6406 283° West 438 504 28,000  Level Denver Center
Sat 04:56:28 PM 39.2914 -101.7992 283° West 434 499 28,000  Level Denver Center
Sat 04:57:30 PM 39.3158 -101.9700 281° West 433 498 28,000  Level Denver Center
Sat 04:58:31 PM 39.3406 -102.1272 282° West 434 499 28,000  Level Denver Center
Sat 04:59:33 PM 39.3628 -102.2742 281° West 435 501 28,000  Level Denver Center
Sat 05:00:34 PM 39.3858 -102.4264 281° West 440 506 28,000  Level Denver Center
Sat 05:01:36 PM 39.4086 -102.5833 281° West 446 513 28,000  Level Denver Center
Sat 05:02:37 PM 39.4322 -102.7414 281° West 449 517 28,000  Level Denver Center
Sat 05:03:38 PM 39.4597 -102.9300 281° West 445 512 28,000  Level Denver Center
Sat 05:04:40 PM 39.4814 -103.0872 280° West 444 511 28,000  Level Denver Center
Sat 05:05:41 PM 39.5031 -103.2386 281° West 433 498 28,000  Level Denver Center
Sat 05:06:43 PM 39.5244 -103.3903 280° West 430 495 28,000  Level Denver Center
Sat 05:07:44 PM 39.5467 -103.5447 281° West 436 502 28,000  Level Denver Center
Sat 05:08:46 PM 39.5672 -103.6997 280° West 438 504 28,000  Level Denver Center
Sat 05:09:47 PM 39.5883 -103.8567 280° West 443 510 28,000  Level Denver Center
Sat 05:10:49 PM 39.6097 -104.0108 280° West 437 503 28,000  Level Denver Center
Sat 05:11:50 PM 39.6344 -104.1961 280° West 430 495 28,000  Level Denver Center
Sat 05:12:52 PM 39.6550 -104.3519 280° West 439 505 28,000  Level Denver Center
Sat 05:13:53 PM 39.6758 -104.5133 280° West 440 506 28,000  Level Denver Center
Sat 05:14:54 PM 39.6961 -104.6742 279° West 438 504 28,000  Level Denver Center
Sat 05:15:56 PM 39.7164 -104.8286 280° West 442 509 28,000  Level Denver Center
Sat 05:16:57 PM 39.7372 -104.9872 280° West 442 509 28,000  Level Denver Center
Sat 05:17:59 PM 39.7569 -105.1556 279° West 446 513 28,000  Level Denver Center
Sat 05:19:00 PM 39.7772 -105.3200 279° West 457 526 28,000  Level Denver Center
Sat 05:20:02 PM 39.7978 -105.4869 279° West 467 537 28,000  Level Denver Center
Sat 05:21:03 PM 39.8175 -105.6572 279° West 473 544 28,000  Level Denver Center
Sat 05:22:05 PM 39.8378 -105.8275 279° West 472 543 28,000  Level Denver Center
Sat 05:23:06 PM 39.8578 -105.9969 279° West 475 547 28,000  Level Denver Center
Sat 05:24:08 PM 39.8778 -106.1683 279° West 478 550 28,000  Level Denver Center
Sat 05:25:09 PM 39.9000 -106.3728 278° West 477 549 28,000  Level Denver Center
Sat 05:26:11 PM 39.9219 -106.5433 280° West 481 554 28,000  Level Denver Center
Sat 05:27:12 PM 39.9419 -106.7150 279° West 482 555 28,000  Level Denver Center
Sat 05:28:14 PM 39.9603 -106.8922 278° West 479 551 28,000  Level Denver Center
Sat 05:29:15 PM 39.9772 -107.0536 278° West 474 545 28,000  Level Denver Center
Sat 05:30:16 PM 39.9989 -107.2439 279° West 474 545 28,000  Level Denver Center
Sat 05:31:18 PM 40.0144 -107.4069 277° West 474 545 28,000  Level Denver Center
Sat 05:32:19 PM 40.0347 -107.5969 278° West 474 545 28,000  Level Denver Center
Sat 05:33:21 PM 40.0511 -107.7586 278° West 472 543 28,000  Level Denver Center
Sat 05:34:22 PM 40.0664 -107.9236 277° West 476 548 28,000  Level Denver Center
Sat 05:35:24 PM 40.0775 -108.1164 274° West 480 552 28,000  Level Denver Center
Sat 05:36:25 PM 40.0839 -108.2800 273° West 477 549 28,000  Level Denver Center
Sat 05:37:27 PM 40.0925 -108.4744 273° West 481 554 28,000  Level Denver Center
Sat 05:38:28 PM 40.0989 -108.6411 273° West 482 555 28,000  Level Denver Center
Sat 05:39:30 PM 40.1067 -108.8314 273° West 477 549 28,000  Level Denver Center
Sat 05:40:31 PM 40.1133 -108.9925 273° West 470 541 28,000  Level Denver Center
Sat 05:41:33 PM 40.1194 -109.1794 273° West 465 535 28,000  Level Denver Center
Sat 05:42:34 PM 40.1256 -109.3406 273° West 465 535 28,000  Level Denver Center
Sat 05:43:36 PM 40.1317 -109.5025 273° West 468 539 28,000  Level Denver Center
Sat 05:44:37 PM 40.1372 -109.6950 272° West 476 548 28,000  Level Denver Center
Sat 05:45:38 PM 40.1422 -109.8597 272° West 475 547 28,000  Level Denver Center
Sat 05:46:40 PM 40.1478 -110.0514 272° West 474 545 28,000  Level Denver Center
Sat 05:47:41 PM 40.1517 -110.2133 272° West 469 540 28,000  Level Denver Center
Sat 05:49:05 PM 40.1469 -110.4586 269° West 472 543 28,000 -41 Level Salt Lake Center
Sat 05:50:06 PM 40.1447 -110.6211 269° West 468 539 27,900 -1,171 Descending Salt Lake Center
Sat 05:51:08 PM 40.1436 -110.7981 270° West 441 507 25,600 -2,146 Descending Salt Lake Center
Sat 05:52:09 PM 40.1414 -110.9419 269° West 426 490 23,500 -2,066 Descending Salt Lake Center
Sat 05:53:10 PM 40.1397 -111.0897 269° West 411 473 21,400 -2,049 Descending Salt Lake Center
Sat 05:54:12 PM 40.1372 -111.2347 269° West 402 463 19,300 -2,049 Descending Salt Lake Center
Sat 05:55:13 PM 40.1339 -111.3731 268° West 386 444 17,200 -1,512 Descending Salt Lake Center
Sat 05:56:15 PM 40.1311 -111.5094 269° West 378 435 16,200 -911 Descending Salt Lake Center
Sat 05:56:32 PM 40.1339 -111.5661 274° West 340 391 16,000 -197 Descending Salt Lake Center
Sat 05:57:16 PM 40.1556 -111.6167 299° West 306 352 16,000  Level Salt Lake Center
Sat 05:57:27 PM 40.1656 -111.6592 287° West 302 348 16,000 -885 Level Salt Lake Center
Sat 05:58:17 PM 40.2097 -111.7239 312° West 298 343 15,100 -1,111 Descending Salt Lake Center
Sat 05:58:21 PM 40.2111 -111.7361 278° West 290 334 15,000 -1,645 Descending Salt Lake Center
Sat 05:59:19 PM 40.2642 -111.7972 319° Northwest 281 323 13,400 -1,672 Descending Salt Lake Center
Sat 05:59:22 PM 40.2664 -111.8075 286° West 276 318 13,300 -1,655 Descending Salt Lake Center
Sat 06:00:17 PM 40.3169 -111.8661 319° Northwest 269 310 11,800 -1,552 Descending Salt Lake Center
Sat 06:00:20 PM 40.3197 -111.8611 54° Northeast 268 308 11,800 -750 Level Salt Lake Center
Sat 06:01:21 PM 40.3794 -111.9211 323° Northwest 270 311 11,000 -686 Descending Salt Lake Center
Sat 06:01:30 PM 40.3906 -111.9342 318° Northwest 266 306 11,000 -97 Level Salt Lake Center
Sat 06:02:23 PM 40.4436 -111.9350 359° North 233 268 10,900 -537 Descending Salt Lake Center
Sat 06:02:37 PM 40.4611 -111.9411 345° North 233 268 10,400 -1,475 Descending Salt Lake Center
Sat 06:03:24 PM 40.5092 -111.9425 359° North 234 269 9,400 -1,444 Descending Salt Lake Center
Sat 06:03:31 PM 40.5208 -111.9492 337° Northwest 230 265 9,100 -1,082 Descending Salt Lake Center
Sat 06:04:25 PM 40.5644 -111.9489 360° North 197 227 8,300 -1,082 Descending Salt Lake Center
Sat 06:04:32 PM 40.5753 -111.9533 343° North 196 226 8,000 -1,286 Descending Salt Lake Center
Sat 06:05:21 PM 40.6219 -111.9600 354° North 199 229 7,100 -873 Descending Salt Lake Center
Sat 06:05:27 PM 40.6206 -111.9556 112° Southeast 203 234 7,200 -764 Climbing Salt Lake Center
Sat 06:06:16 PM 40.6653 -111.9622 354° North 190 219 6,400 -787 Descending Salt Lake Center
Sat 06:06:28 PM 40.6706 -111.9614 North 184 212 6,400 -800 Level Salt Lake Center
Sat 06:07:16 PM 40.7075 -111.9678 353° North 145 167 5,600 -984 Descending Salt Lake Center
Sat 06:07:29 PM 40.7181 -111.9667 North 144 166 5,400 -689 Descending Salt Lake Center
Sat 06:08:17 PM 40.7469 -111.9714 353° North 140 161 4,900 -677 Descending Salt Lake Center
Sat 06:08:31 PM 40.7567 -111.9708 North 139 160 4,700 -480 Descending Salt Lake Center
Sat 06:09:32 PM 40.7942 -111.9747 356° North 138 159 4,300 -393 Descending Salt Lake Center

Login

Don't have an account? Register now (free) for customized features, flight alerts, and more!